Time;durP1;ratioP1;P1;durP2;ratioP2;P2;SDS_P1;SDS_P2;PMS_P1;PMS_P2;Temp;Humidity;BMP_temperature;BMP_pressure;BME280_temperature;BME280_humidity;BME280_pressure;Samples;Min_cycle;Max_cycle;Signal;HPM_P1;HPM_P2
2023/02/27 00:01:45;;;;;;;3.40;2.10;;;;;;;0.29;91.81;95039.39;106283;1280;22590;-71
2023/02/27 00:04:13;;;;;;;3.20;2.10;;;;;;;0.33;91.66;95041.35;106677;1276;23908;-70
2023/02/27 00:23:45;;;;;;;1.90;1.50;;;;;;;1.67;87.23;95036.13;103595;1308;558230;-69
2023/02/27 00:26:13;;;;;;;1.70;1.10;;;;;;;1.69;86.81;95039.46;105781;1287;166023;-71
2023/02/27 00:28:41;;;;;;;1.40;1.10;;;;;;;1.52;86.08;95037.60;105861;1287;22529;-71
2023/02/27 00:31:09;;;;;;;1.10;0.60;;;;;;;1.36;86.52;95037.49;105925;1287;22576;-71
2023/02/27 00:33:38;;;;;;;0.80;0.70;;;;;;;1.24;86.78;95036.02;106251;1287;22609;-70
2023/02/27 00:36:09;;;;;;;1.40;0.70;;;;;;;1.03;86.06;95034.98;106274;1287;22545;-71
2023/02/27 00:38:37;;;;;;;0.80;0.60;;;;;;;0.91;86.71;95035.36;106248;1287;24361;-71
2023/02/27 00:41:06;;;;;;;1.40;1.00;;;;;;;0.76;86.76;95033.49;105925;1287;25375;-71
2023/02/27 00:43:34;;;;;;;0.50;0.50;;;;;;;0.64;87.16;95038.91;105928;1287;22765;-70
2023/02/27 00:46:02;;;;;;;1.30;0.80;;;;;;;0.52;87.22;95043.98;106225;1287;22580;-71
2023/02/27 00:48:31;;;;;;;1.10;0.70;;;;;;;0.43;87.75;95047.16;106280;1264;22536;-71
2023/02/27 00:51:01;;;;;;;1.40;0.60;;;;;;;0.34;87.88;95043.95;105905;1287;24350;-71
2023/02/27 00:53:30;;;;;;;0.70;0.60;;;;;;;0.23;88.29;95041.58;105899;1287;24267;-71
2023/02/27 00:55:58;;;;;;;0.70;0.60;;;;;;;0.18;88.47;95042.89;105810;1287;22769;-71
2023/02/27 00:58:26;;;;;;;0.60;0.60;;;;;;;0.13;88.54;95043.00;105843;1287;22650;-71
2023/02/27 01:00:54;;;;;;;0.60;0.60;;;;;;;0.03;88.51;95039.77;105888;1287;22749;-71
2023/02/27 01:03:23;;;;;;;0.40;0.40;;;;;;;-0.04;88.78;95044.86;106140;1280;25326;-71
2023/02/27 01:05:52;;;;;;;0.40;0.40;;;;;;;-0.09;88.87;95043.92;106366;1280;22646;-71
2023/02/27 01:08:20;;;;;;;0.60;0.50;;;;;;;-0.15;88.90;95047.30;106298;1280;24380;-71
2023/02/27 01:10:48;;;;;;;1.40;0.70;;;;;;;-0.20;88.90;95051.05;106265;1280;22580;-71
2023/02/27 01:13:16;;;;;;;0.40;0.30;;;;;;;-0.25;89.15;95051.31;106621;1275;22598;-71
2023/02/27 01:15:45;;;;;;;1.20;0.40;;;;;;;-0.29;89.21;95049.88;106590;1275;22652;-71
2023/02/27 01:18:13;;;;;;;0.40;0.40;;;;;;;-0.33;89.43;95049.83;106484;1275;24076;-71
2023/02/27 01:20:41;;;;;;;0.60;0.50;;;;;;;-0.37;89.61;95049.59;106563;1275;24359;-71
2023/02/27 01:23:13;;;;;;;0.60;0.50;;;;;;;-0.40;89.63;95053.02;106622;1275;24229;-71
2023/02/27 01:25:42;;;;;;;1.10;0.60;;;;;;;-0.41;89.56;95053.34;106636;1276;22523;-71
2023/02/27 01:28:10;;;;;;;0.50;0.50;;;;;;;-0.43;89.55;95050.89;106540;1276;24219;-71
2023/02/27 01:30:40;;;;;;;0.60;0.50;;;;;;;-0.42;89.70;95051.23;106536;1276;22650;-70
2023/02/27 01:33:09;;;;;;;0.40;0.40;;;;;;;-0.41;89.86;95046.59;106581;1275;24385;-71
2023/02/27 01:35:40;;;;;;;0.40;0.40;;;;;;;-0.39;90.00;95053.20;106696;1276;22530;-71
2023/02/27 01:38:09;;;;;;;1.50;0.60;;;;;;;-0.34;90.20;95056.19;106866;1276;24193;-71
2023/02/27 01:40:40;;;;;;;1.00;0.60;;;;;;;-0.30;90.17;95056.61;106595;1276;23362;-70
2023/02/27 01:43:16;;;;;;;0.30;0.30;;;;;;;-0.22;90.55;95056.89;106684;1276;25399;-70
2023/02/27 01:45:47;;;;;;;0.40;0.20;;;;;;;-0.12;90.41;95052.36;106547;1276;25426;-71
2023/02/27 01:48:22;;;;;;;0.80;0.70;;;;;;;-0.06;90.17;95054.52;106675;1276;25387;-70
2023/02/27 01:51:04;;;;;;;0.50;0.50;;;;;;;-0.12;89.06;95058.23;106803;1276;22716;-70
2023/02/27 01:53:36;;;;;;;1.00;0.60;;;;;;;-0.19;89.14;95060.21;106624;1276;22748;-71
2023/02/27 01:56:10;;;;;;;1.50;0.70;;;;;;;-0.22;89.75;95062.61;106612;1276;24218;-71
2023/02/27 01:58:39;;;;;;;1.20;0.60;;;;;;;-0.15;90.19;95067.89;106517;1276;25550;-70
2023/02/27 02:28:17;;;;;;;0.40;0.40;;;;;;;0.74;86.03;95072.42;103534;1315;558004;-71
2023/02/27 02:31:14;;;;;;;1.90;0.50;;;;;;;0.63;86.48;95078.89;105884;1287;156039;-71
2023/02/27 02:34:12;;;;;;;1.30;0.70;;;;;;;0.54;86.89;95082.75;106148;1287;24385;-71
2023/02/27 02:37:17;;;;;;;1.30;0.70;;;;;;;0.45;86.84;95081.61;106195;1287;25250;-70
2023/02/27 02:39:46;;;;;;;1.20;0.80;;;;;;;0.26;86.87;95086.06;106182;1287;25401;-71
2023/02/27 02:42:39;;;;;;;1.20;0.80;;;;;;;0.21;87.73;95088.77;106112;1287;22543;-70
2023/02/27 02:45:22;;;;;;;1.80;0.90;;;;;;;0.23;88.00;95089.82;106205;1287;22547;-70
2023/02/27 02:47:53;;;;;;;1.10;1.00;;;;;;;0.24;88.23;95089.48;106127;1287;22546;-71
2023/02/27 02:50:47;;;;;;;1.90;1.30;;;;;;;0.26;88.12;95089.16;106191;1287;25153;-70
2023/02/27 02:53:35;;;;;;;2.10;1.10;;;;;;;0.29;88.31;95097.52;105949;1287;22641;-71
2023/02/27 02:56:12;;;;;;;3.30;1.90;;;;;;;0.31;88.01;95099.79;106217;1287;25456;-70
2023/02/27 02:58:49;;;;;;;4.60;2.80;;;;;;;0.36;88.51;95099.33;106125;1287;22550;-70
2023/02/27 03:01:31;;;;;;;4.40;2.50;;;;;;;0.45;88.41;95105.33;105820;1287;22533;-70
2023/02/27 03:04:21;;;;;;;6.00;2.80;;;;;;;0.50;88.16;95109.71;105856;1287;25289;-70
2023/02/27 03:06:57;;;;;;;3.90;2.20;;;;;;;0.50;87.95;95113.69;105813;1287;26565;-71
2023/02/27 03:09:32;;;;;;;1.70;1.40;;;;;;;0.52;87.85;95116.14;105817;1287;22945;-71
2023/02/27 03:12:04;;;;;;;1.70;1.30;;;;;;;0.51;87.43;95117.85;105844;1287;22560;-70
2023/02/27 03:14:48;;;;;;;2.60;1.70;;;;;;;0.42;86.84;95122.24;105863;1275;22622;-71
2023/02/27 03:17:37;;;;;;;2.20;1.30;;;;;;;0.33;86.91;95132.34;105832;1285;23904;-70
2023/02/27 03:20:10;;;;;;;2.30;1.50;;;;;;;0.25;87.00;95135.52;105842;1285;24208;-70
2023/02/27 03:22:43;;;;;;;2.00;1.50;;;;;;;0.22;87.30;95138.06;105910;1285;25486;-71
2023/02/27 03:25:14;;;;;;;3.30;1.40;;;;;;;0.17;87.17;95141.45;105961;1271;22536;-71
2023/02/27 03:28:09;;;;;;;2.60;1.80;;;;;;;0.08;87.05;95141.00;105939;1285;22541;-70
2023/02/27 03:30:50;;;;;;;4.10;1.50;;;;;;;-0.00;86.92;95149.35;105904;1285;22636;-71
2023/02/27 03:33:28;;;;;;;8.60;3.20;;;;;;;-0.09;86.99;95149.40;105857;1286;25247;-71
2023/02/27 03:36:10;;;;;;;2.40;1.50;;;;;;;-0.16;87.17;95149.46;105936;1285;22536;-70
2023/02/27 03:39:20;;;;;;;1.40;0.50;;;;;;;-0.24;87.25;95154.02;105942;1285;22509;-71
2023/02/27 03:42:07;;;;;;;0.90;0.60;;;;;;;-0.31;87.44;95159.42;105263;1293;22572;-71
2023/02/27 03:45:07;;;;;;;0.80;0.40;;;;;;;-0.37;87.78;95164.31;105359;1293;25305;-71
2023/02/27 03:47:35;;;;;;;1.50;0.70;;;;;;;-0.43;87.84;95169.41;105838;1285;22539;-71
2023/02/27 03:50:04;;;;;;;0.90;0.70;;;;;;;-0.50;88.24;95173.09;105864;1266;22536;-71
2023/02/27 03:52:33;;;;;;;0.50;0.30;;;;;;;-0.56;88.28;95175.42;106388;1277;24229;-71
2023/02/27 03:55:18;;;;;;;0.30;0.30;;;;;;;-0.58;88.48;95177.81;106551;1276;22554;-71
2023/02/27 03:57:48;;;;;;;3.30;1.50;;;;;;;-0.60;88.63;95182.60;106566;1276;23939;-71
2023/02/27 04:00:20;;;;;;;2.20;1.30;;;;;;;-0.64;88.31;95186.85;106310;1277;22557;-71
2023/02/27 04:02:52;;;;;;;0.90;0.70;;;;;;;-0.64;88.75;95189.10;106526;1254;22594;-71
2023/02/27 04:05:23;;;;;;;1.10;0.70;;;;;;;-0.62;88.91;95191.39;106556;1277;25225;-71
2023/02/27 04:08:15;;;;;;;1.00;0.50;;;;;;;-0.61;89.23;95191.21;106556;1277;24386;-71
2023/02/27 04:10:56;;;;;;;0.50;0.50;;;;;;;-0.59;89.28;95194.90;106551;1276;24345;-70
2023/02/27 04:13:41;;;;;;;0.50;0.40;;;;;;;-0.56;89.26;95195.96;106548;1277;24424;-71
2023/02/27 04:16:31;;;;;;;2.00;1.30;;;;;;;-0.53;89.19;95201.39;106538;1277;22652;-70
2023/02/27 04:19:21;;;;;;;1.60;0.80;;;;;;;-0.48;89.17;95199.75;106540;1277;22656;-70
2023/02/27 04:22:07;;;;;;;11.90;5.40;;;;;;;-0.48;88.86;95198.89;106551;1277;25329;-71
2023/02/27 04:25:00;;;;;;;19.00;8.00;;;;;;;-0.49;88.70;95202.67;106511;1277;24270;-70
2023/02/27 04:27:58;;;;;;;3.20;1.70;;;;;;;-0.48;88.70;95201.66;106534;1277;22545;-70
2023/02/27 04:30:37;;;;;;;1.50;1.30;;;;;;;-0.52;88.28;95203.30;106254;1277;22535;-70
2023/02/27 04:33:08;;;;;;;7.80;7.00;;;;;;;-0.55;88.61;95207.39;106586;1277;22527;-70
2023/02/27 04:35:53;;;;;;;1.30;1.20;;;;;;;-0.47;89.10;95211.17;106580;1265;22653;-70
2023/02/27 04:38:31;;;;;;;2.40;2.10;;;;;;;-0.44;88.45;95210.17;106473;1265;22787;-70
2023/02/27 04:41:08;;;;;;;2.40;2.20;;;;;;;-0.42;88.43;95210.56;106600;1277;22537;-70
2023/02/27 04:43:39;;;;;;;3.50;3.10;;;;;;;-0.38;88.64;95218.05;106552;1277;22789;-70
2023/02/27 04:46:11;;;;;;;12.20;10.40;;;;;;;-0.35;88.56;95216.04;106576;1277;22657;-70
2023/02/27 04:48:48;;;;;;;7.70;6.20;;;;;;;-0.30;88.42;95214.90;106543;1277;22858;-70
2023/02/27 04:51:21;;;;;;;4.30;3.10;;;;;;;-0.23;88.61;95216.24;106551;1277;22782;-70
2023/02/27 04:53:58;;;;;;;6.20;4.40;;;;;;;-0.22;88.10;95218.50;106523;1277;22750;-71
2023/02/27 04:56:31;;;;;;;6.50;4.10;;;;;;;-0.24;87.84;95223.83;106542;1277;26635;-71
2023/02/27 04:59:19;;;;;;;19.10;12.90;;;;;;;-0.31;87.33;95223.34;106557;1277;24119;-71
2023/02/27 05:01:56;;;;;;;4.70;3.20;;;;;;;-0.40;87.44;95229.95;106491;1276;25426;-71
2023/02/27 05:04:28;;;;;;;8.40;5.10;;;;;;;-0.44;87.54;95237.83;106457;1277;25218;-70
2023/02/27 05:07:00;;;;;;;9.30;7.60;;;;;;;-0.51;87.60;95240.64;106606;1262;24439;-70
2023/02/27 05:09:47;;;;;;;2.70;2.10;;;;;;;-0.51;87.78;95245.48;106582;1277;22530;-70
2023/02/27 05:12:27;;;;;;;4.60;3.30;;;;;;;-0.55;87.73;95249.03;106733;1277;22615;-71
2023/02/27 05:15:37;;;;;;;3.40;2.30;;;;;;;-0.58;87.89;95243.63;106583;1276;25413;-70
2023/02/27 05:18:13;;;;;;;6.00;5.00;;;;;;;-0.58;88.28;95243.95;106536;1277;26718;-70
2023/02/27 05:21:14;;;;;;;5.00;4.30;;;;;;;-0.62;88.12;95252.20;106479;1277;22576;-69
2023/02/27 05:24:07;;;;;;;14.60;6.60;;;;;;;-0.67;88.01;95261.42;106419;1277;25337;-70
2023/02/27 05:27:00;;;;;;;2.80;2.00;;;;;;;-0.70;88.29;95262.23;106516;1277;22523;-70
2023/02/27 05:42:31;;;;;;;10.90;7.70;;;;;;;-0.05;86.35;95275.13;104646;1304;558227;-70
2023/02/27 05:45:06;;;;;;;5.80;4.20;;;;;;;-0.02;86.37;95282.63;105864;1287;182767;-70
2023/02/27 05:47:39;;;;;;;1.30;0.80;;;;;;;-0.07;86.33;95287.90;106212;1287;25399;-70
2023/02/27 05:50:12;;;;;;;0.80;0.70;;;;;;;-0.07;86.78;95293.78;106274;1287;25386;-71
2023/02/27 05:52:42;;;;;;;0.90;0.60;;;;;;;-0.11;86.48;95299.77;106334;1284;22546;-71
2023/02/27 05:55:22;;;;;;;0.70;0.60;;;;;;;-0.27;85.99;95303.29;106310;1284;25399;-71
2023/02/27 05:58:18;;;;;;;2.60;1.90;;;;;;;-0.31;86.40;95306.33;106349;1284;22550;-74
2023/02/27 06:00:51;;;;;;;7.50;6.40;;;;;;;-0.34;86.52;95313.17;106721;1280;24378;-81
2023/02/27 06:03:20;;;;;;;2.90;1.60;;;;;;;-0.30;87.09;95316.88;106677;1280;22535;-78
2023/02/27 06:05:53;;;;;;;1.00;0.90;;;;;;;-0.26;87.00;95318.52;106671;1280;22643;-81
2023/02/27 06:08:21;;;;;;;;;;;;;;;-0.28;86.55;95320.72;106708;1280;25368;-79
2023/02/27 06:10:50;;;;;;;50.40;28.20;;;;;;;-0.27;86.87;95327.83;106724;1280;22572;-77
2023/02/27 06:13:18;;;;;;;48.40;31.80;;;;;;;-0.28;86.53;95333.51;106656;1280;25220;-72
2023/02/27 06:15:48;;;;;;;2.80;2.00;;;;;;;-0.25;86.73;95338.24;106594;1280;23536;-81
2023/02/27 06:18:17;;;;;;;1.00;0.70;;;;;;;-0.23;86.35;95340.19;106529;1280;22535;-73
2023/02/27 06:20:46;;;;;;;1.10;0.80;;;;;;;-0.21;86.40;95343.31;106230;1280;22550;-73
2023/02/27 06:23:16;;;;;;;2.00;1.70;;;;;;;-0.23;86.05;95343.63;106130;1280;24267;-80
2023/02/27 06:25:44;;;;;;;2.00;1.40;;;;;;;-0.23;86.10;95351.07;106173;1280;22616;-81
2023/02/27 06:28:12;;;;;;;1.30;0.70;;;;;;;-0.24;85.92;95359.52;106523;1280;25393;-77
2023/02/27 06:30:40;;;;;;;5.60;4.60;;;;;;;-0.28;85.70;95363.08;106586;1280;25332;-79
2023/02/27 06:33:09;;;;;;;1.10;1.00;;;;;;;-0.22;86.21;95366.13;106210;1280;22557;-80
2023/02/27 06:35:37;;;;;;;1.00;0.90;;;;;;;-0.17;85.86;95367.08;106941;1275;22800;-79
2023/02/27 06:38:05;;;;;;;2.10;1.50;;;;;;;-0.18;85.47;95377.06;106873;1275;24206;-78
2023/02/27 06:40:34;;;;;;;3.40;3.00;;;;;;;-0.21;85.31;95381.52;106928;1275;22626;-79
2023/02/27 06:43:02;;;;;;;2.60;1.90;;;;;;;-0.24;85.43;95386.14;106903;1275;22641;-74
2023/02/27 06:45:30;;;;;;;4.50;2.50;;;;;;;-0.21;85.71;95388.25;106880;1276;23122;-81
2023/02/27 06:47:58;;;;;;;4.00;2.30;;;;;;;-0.18;85.78;95392.98;106581;1276;22661;-82
2023/02/27 06:50:27;;;;;;;6.20;3.20;;;;;;;-0.16;85.59;95397.18;106559;1276;24086;-83
2023/02/27 06:52:55;;;;;;;6.50;3.50;;;;;;;-0.14;85.58;95396.19;106629;1276;25422;-87
2023/02/27 06:55:24;;;;;;;6.90;3.40;;;;;;;-0.10;85.55;95399.02;106561;1276;24497;-78
2023/02/27 07:11:33;;;;;;;4.50;3.10;;;;;;;0.73;82.74;95408.59;104517;1304;557728;-72
2023/02/27 07:14:01;;;;;;;2.60;2.30;;;;;;;0.67;81.72;95416.30;105754;1287;168625;-78
2023/02/27 07:16:29;;;;;;;4.40;2.60;;;;;;;0.62;82.20;95416.57;106021;1287;22558;-78
2023/02/27 07:18:57;;;;;;;3.70;2.30;;;;;;;0.59;81.62;95419.11;106563;1280;22740;-74
2023/02/27 07:21:26;;;;;;;3.00;2.20;;;;;;;0.62;82.46;95420.36;106693;1280;23897;-77
2023/02/27 07:38:13;;;;;;;3.20;2.70;;;;;;;1.46;79.29;95415.73;104622;1296;557938;-83
2023/02/27 07:40:41;;;;;;;2.60;2.30;;;;;;;1.34;78.41;95424.08;106042;1286;165401;-76
2023/02/27 07:43:10;;;;;;;3.10;2.20;;;;;;;1.17;79.02;95430.08;105713;1286;22547;-78
2023/02/27 07:45:38;;;;;;;3.30;2.40;;;;;;;1.01;78.98;95431.05;105820;1287;26510;-76
2023/02/27 07:48:06;;;;;;;2.90;2.40;;;;;;;0.92;79.51;95435.05;105738;1287;25468;-80
2023/02/27 07:50:34;;;;;;;2.90;2.40;;;;;;;0.85;79.74;95438.41;105701;1287;22832;-77
2023/02/27 07:53:04;;;;;;;2.30;2.10;;;;;;;0.73;79.61;95441.16;105898;1287;25409;-75
2023/02/27 07:55:32;;;;;;;2.30;1.70;;;;;;;0.61;79.71;95445.98;105941;1287;25297;-71
2023/02/27 07:58:00;;;;;;;2.80;2.20;;;;;;;0.51;79.91;95449.10;106122;1288;22812;-69
2023/02/27 08:00:29;;;;;;;3.30;2.30;;;;;;;0.45;80.13;95451.39;105813;1287;23010;-78
2023/02/27 08:02:57;;;;;;;3.40;2.50;;;;;;;0.43;80.54;95456.55;105805;1287;24397;-74
2023/02/27 08:05:25;;;;;;;4.30;3.60;;;;;;;0.39;80.78;95456.33;105741;1287;24258;-70
2023/02/27 08:07:54;;;;;;;3.00;2.50;;;;;;;0.39;80.80;95457.35;105897;1287;22665;-72
2023/02/27 08:10:22;;;;;;;3.40;2.70;;;;;;;0.32;80.66;95460.52;105806;1270;22802;-81
2023/02/27 08:12:51;;;;;;;3.50;2.60;;;;;;;0.33;81.12;95464.16;105858;1287;24367;-77
2023/02/27 08:15:20;;;;;;;4.80;3.00;;;;;;;0.38;81.00;95463.40;105770;1280;24705;-75
2023/02/27 08:17:48;;;;;;;3.70;2.20;;;;;;;0.38;80.49;95468.77;106110;1280;25702;-79
2023/02/27 08:20:17;;;;;;;3.00;2.50;;;;;;;0.34;80.44;95476.82;106094;1279;23691;-78
2023/02/27 08:22:46;;;;;;;3.20;2.20;;;;;;;0.35;80.45;95482.88;106943;1273;22831;-75
2023/02/27 08:25:14;;;;;;;2.60;2.00;;;;;;;0.41;80.60;95490.61;106996;1270;22558;-70
2023/02/27 08:27:43;;;;;;;2.30;1.80;;;;;;;0.49;80.64;95492.33;106859;1271;22547;-71
2023/02/27 08:30:11;;;;;;;1.90;1.80;;;;;;;0.50;80.25;95494.08;106659;1259;22842;-73
2023/02/27 08:32:40;;;;;;;4.50;2.30;;;;;;;0.48;80.07;95500.79;106901;1275;22589;-72
2023/02/27 08:35:08;;;;;;;2.70;1.70;;;;;;;0.54;80.38;95502.27;106994;1271;22537;-70
2023/02/27 08:37:37;;;;;;;1.80;1.60;;;;;;;0.63;80.57;95509.35;106802;1270;26487;-71
2023/02/27 08:40:06;;;;;;;2.20;1.70;;;;;;;0.74;80.31;95513.02;106722;1270;22538;-71
2023/02/27 08:42:34;;;;;;;2.00;1.70;;;;;;;0.79;80.02;95512.41;107046;1270;25269;-75
2023/02/27 08:45:03;;;;;;;3.60;2.40;;;;;;;0.90;79.98;95518.66;106977;1270;22557;-74
2023/02/27 08:47:31;;;;;;;3.60;3.10;;;;;;;1.05;79.84;95526.02;106610;1273;22541;-72
2023/02/27 08:50:00;;;;;;;4.20;2.90;;;;;;;1.19;79.23;95530.23;106650;1269;23396;-78
2023/02/27 08:52:28;;;;;;;4.80;3.70;;;;;;;1.28;78.86;95533.84;106619;1272;22527;-73
2023/02/27 08:54:56;;;;;;;8.30;5.20;;;;;;;1.42;78.54;95539.46;106996;1273;22640;-72
2023/02/27 08:57:24;;;;;;;3.20;2.60;;;;;;;1.59;77.95;95547.33;106785;1273;22911;-72
2023/02/27 08:59:53;;;;;;;4.20;3.00;;;;;;;1.68;77.22;95554.58;106564;1260;22769;-70
2023/02/27 09:02:25;;;;;;;4.10;3.30;;;;;;;1.77;77.21;95555.05;106541;1270;23916;-69
2023/02/27 09:04:54;;;;;;;4.60;3.40;;;;;;;1.81;76.82;95564.65;106592;1273;25352;-71
2023/02/27 09:07:22;;;;;;;4.20;3.10;;;;;;;1.80;76.81;95566.20;106661;1270;25504;-70
2023/02/27 09:09:50;;;;;;;5.30;3.40;;;;;;;1.85;76.96;95564.88;106668;1270;22542;-71
2023/02/27 09:12:18;;;;;;;3.80;2.70;;;;;;;1.79;76.12;95565.83;106734;1270;23342;-72
2023/02/27 09:14:47;;;;;;;4.00;2.70;;;;;;;1.71;76.34;95560.88;106458;1270;25531;-75
2023/02/27 09:17:15;;;;;;;4.80;2.80;;;;;;;1.73;76.64;95558.46;106505;1270;25402;-71
2023/02/27 09:19:43;;;;;;;2.60;2.30;;;;;;;1.79;76.33;95553.70;106670;1269;25475;-73
2023/02/27 09:22:11;;;;;;;2.80;1.90;;;;;;;1.79;75.86;95560.11;106581;1274;22532;-70
2023/02/27 09:24:39;;;;;;;2.80;2.20;;;;;;;1.74;75.76;95564.72;106658;1270;22527;-71
2023/02/27 09:27:08;;;;;;;3.90;2.80;;;;;;;1.81;76.06;95566.20;106460;1276;24365;-75
2023/02/27 09:29:36;;;;;;;2.90;2.10;;;;;;;1.84;76.04;95563.65;106536;1269;25367;-75
2023/02/27 09:32:04;;;;;;;2.50;2.20;;;;;;;1.87;75.81;95562.31;106463;1254;22618;-74
2023/02/27 09:34:33;;;;;;;2.90;2.30;;;;;;;1.84;75.27;95566.94;106577;1270;22535;-78
2023/02/27 09:37:01;;;;;;;3.30;2.50;;;;;;;1.93;75.72;95568.81;106555;1270;22520;-78
2023/02/27 09:39:30;;;;;;;4.80;3.30;;;;;;;2.00;75.52;95572.21;106901;1270;22536;-79
2023/02/27 09:42:04;;;;;;;20.50;11.80;;;;;;;2.04;74.95;95582.83;107098;1270;25284;-76
2023/02/27 09:44:41;;;;;;;6.10;4.20;;;;;;;2.06;74.90;95585.14;107064;1270;22527;-75
2023/02/27 09:47:19;;;;;;;3.80;3.10;;;;;;;2.07;74.51;95589.48;106822;1273;24464;-77
2023/02/27 09:50:00;;;;;;;5.70;4.30;;;;;;;2.11;74.58;95598.39;106810;1272;22537;-75
2023/02/27 09:52:31;;;;;;;4.40;3.20;;;;;;;2.17;74.39;95598.83;106639;1273;22602;-80
2023/02/27 09:55:00;;;;;;;6.20;3.60;;;;;;;2.34;74.02;95606.16;106634;1270;25478;-70
2023/02/27 09:57:31;;;;;;;6.70;4.40;;;;;;;2.46;73.32;95611.35;106573;1269;22621;-81
2023/02/27 10:00:06;;;;;;;7.30;3.60;;;;;;;2.57;73.23;95607.86;106726;1268;22522;-75
2023/02/27 10:02:54;;;;;;;6.20;4.70;;;;;;;2.64;72.92;95611.23;106779;1269;22570;-74
2023/02/27 10:05:37;;;;;;;5.60;5.10;;;;;;;2.69;72.23;95610.42;106635;1272;22530;-72
2023/02/27 10:08:22;;;;;;;10.00;6.80;;;;;;;2.74;72.15;95610.13;106625;1273;25351;-72
2023/02/27 10:11:07;;;;;;;8.50;6.50;;;;;;;2.82;71.68;95614.39;106576;1270;23883;-74
2023/02/27 10:13:48;;;;;;;10.80;7.40;;;;;;;2.88;71.47;95616.54;106538;1273;25344;-74
2023/02/27 10:16:20;;;;;;;10.00;6.90;;;;;;;2.80;71.51;95614.02;106789;1273;24031;-74
2023/02/27 10:18:58;;;;;;;7.80;5.30;;;;;;;2.81;71.56;95618.02;106531;1273;24229;-74
2023/02/27 10:21:40;;;;;;;6.80;4.90;;;;;;;2.75;71.38;95624.74;106576;1276;25335;-74
2023/02/27 10:24:26;;;;;;;9.40;6.20;;;;;;;2.76;71.47;95632.23;106877;1276;22860;-74
2023/02/27 10:26:57;;;;;;;9.00;6.10;;;;;;;2.81;71.40;95634.89;106664;1276;25465;-74
2023/02/27 10:29:40;;;;;;;5.50;4.00;;;;;;;2.84;71.22;95632.84;106731;1276;22530;-74
2023/02/27 10:32:23;;;;;;;8.00;5.60;;;;;;;3.01;71.69;95634.59;106617;1276;22523;-74
2023/02/27 10:34:57;;;;;;;7.80;5.30;;;;;;;3.30;71.14;95643.06;106628;1276;24217;-74
2023/02/27 10:37:27;;;;;;;6.40;5.00;;;;;;;3.63;70.62;95641.65;106557;1273;22527;-74
2023/02/27 10:39:58;;;;;;;5.70;4.60;;;;;;;3.79;69.46;95643.17;106576;1276;22657;-73
2023/02/27 10:42:32;;;;;;;4.80;3.60;;;;;;;3.90;69.10;95648.13;106940;1276;22648;-74
2023/02/27 10:45:01;;;;;;;9.40;5.10;;;;;;;4.04;68.40;95651.90;106814;1276;25265;-73
2023/02/27 10:47:29;;;;;;;5.60;4.10;;;;;;;4.13;67.94;95663.79;106863;1276;22990;-74
2023/02/27 10:49:59;;;;;;;5.20;3.30;;;;;;;4.18;67.60;95666.97;106527;1276;25328;-74
2023/02/27 10:52:27;;;;;;;5.10;4.00;;;;;;;4.14;67.81;95666.59;106617;1276;24243;-74
2023/02/27 10:55:17;;;;;;;4.20;3.60;;;;;;;4.00;67.49;95672.22;106472;1276;24416;-73
2023/02/27 10:57:46;;;;;;;5.40;4.30;;;;;;;3.72;68.25;95674.60;106447;1276;24228;-72
2023/02/27 11:00:51;;;;;;;5.50;4.50;;;;;;;3.51;68.82;95681.01;106606;1276;22716;-74
2023/02/27 11:03:23;;;;;;;5.20;4.30;;;;;;;3.42;69.37;95683.17;106648;1276;22926;-73
2023/02/27 11:06:21;;;;;;;5.60;4.30;;;;;;;3.30;69.39;95681.31;106855;1275;23004;-73
2023/02/27 11:09:17;;;;;;;5.60;4.10;;;;;;;3.12;69.62;95683.37;106633;1275;24363;-74
2023/02/27 11:11:45;;;;;;;6.20;4.60;;;;;;;3.05;70.04;95681.56;106591;1275;22538;-74
2023/02/27 11:14:28;;;;;;;22.50;14.10;;;;;;;2.98;70.60;95677.81;106556;1275;24323;-74
2023/02/27 11:16:59;;;;;;;12.10;9.00;;;;;;;3.00;70.90;95681.33;106682;1276;24558;-74
2023/02/27 11:19:32;;;;;;;7.80;5.10;;;;;;;2.95;70.70;95687.70;107012;1275;25483;-74
2023/02/27 11:22:02;;;;;;;6.20;4.70;;;;;;;2.77;70.19;95695.11;106878;1276;22536;-74
2023/02/27 11:24:30;;;;;;;10.10;6.40;;;;;;;2.58;71.05;95701.45;106737;1276;22643;-74
2023/02/27 11:27:05;;;;;;;6.90;5.50;;;;;;;2.78;71.90;95704.32;106651;1275;24308;-74
2023/02/27 11:29:33;;;;;;;7.20;5.40;;;;;;;3.00;71.23;95710.00;106582;1275;22526;-74
2023/02/27 11:32:20;;;;;;;6.00;5.00;;;;;;;3.14;70.66;95710.52;106621;1275;24085;-74
2023/02/27 11:34:51;;;;;;;7.10;5.90;;;;;;;3.27;70.43;95712.92;106622;1276;25166;-74
2023/02/27 11:37:33;;;;;;;7.30;5.60;;;;;;;3.30;69.97;95706.35;106638;1276;24368;-74
2023/02/27 11:40:13;;;;;;;7.40;5.70;;;;;;;3.32;69.72;95710.73;106633;1276;25229;-74
2023/02/27 11:43:10;;;;;;;7.40;6.00;;;;;;;3.17;69.30;95711.08;106623;1276;22543;-74
2023/02/27 11:45:39;;;;;;;7.60;6.20;;;;;;;2.96;69.96;95713.94;106765;1276;23928;-74
2023/02/27 11:48:37;;;;;;;14.20;9.30;;;;;;;2.91;70.46;95722.04;106587;1275;24235;-74
2023/02/27 11:51:27;;;;;;;14.30;8.80;;;;;;;2.86;70.70;95724.94;106570;1276;24196;-74
2023/02/27 11:53:59;;;;;;;7.40;6.10;;;;;;;2.63;70.69;95729.48;106634;1276;22528;-74
2023/02/27 11:56:47;;;;;;;10.00;7.00;;;;;;;2.46;71.58;95732.18;106627;1276;22625;-74
2023/02/27 11:59:22;;;;;;;9.80;7.00;;;;;;;2.44;71.68;95730.08;106596;1273;22541;-74
2023/02/27 12:02:22;;;;;;;7.90;6.20;;;;;;;2.31;71.62;95726.05;106610;1275;22640;-74
2023/02/27 12:05:17;;;;;;;10.90;7.90;;;;;;;2.26;72.16;95734.48;106646;1276;22524;-74
2023/02/27 12:08:04;;;;;;;10.60;7.90;;;;;;;2.32;72.50;95743.61;106957;1272;22527;-74
2023/02/27 12:10:56;;;;;;;9.50;6.80;;;;;;;2.40;72.38;95753.63;107011;1276;24214;-74
2023/02/27 12:13:46;;;;;;;9.20;6.50;;;;;;;2.44;72.01;95756.46;106863;1264;24319;-73
2023/02/27 12:16:14;;;;;;;;;;;;;;;2.36;71.95;95761.04;106621;1275;22512;-74
2023/02/27 12:18:50;;;;;;;9.10;7.20;;;;;;;2.31;72.35;95769.99;106867;1276;22519;-74
2023/02/27 12:21:23;;;;;;;9.20;6.10;;;;;;;2.30;72.23;95773.44;106623;1276;22640;-74
2023/02/27 12:24:24;;;;;;;9.60;7.10;;;;;;;2.33;72.34;95771.41;106593;1276;23903;-74
2023/02/27 12:27:23;;;;;;;9.90;6.80;;;;;;;2.44;72.17;95773.81;106325;1276;22527;-74
2023/02/27 12:30:06;;;;;;;10.00;7.70;;;;;;;2.50;72.07;95772.01;106594;1276;24362;-74
2023/02/27 12:32:56;;;;;;;11.10;7.60;;;;;;;2.55;72.13;95768.27;106674;1275;24069;-74
2023/02/27 12:35:32;;;;;;;8.90;6.70;;;;;;;2.64;71.83;95766.66;106665;1275;22533;-74
2023/02/27 12:38:01;;;;;;;6.40;5.20;;;;;;;2.73;71.48;95773.75;106870;1276;24193;-73
2023/02/27 12:40:36;;;;;;;7.40;6.40;;;;;;;2.82;71.59;95781.69;106628;1275;22526;-74
2023/02/27 12:43:32;;;;;;;7.00;5.10;;;;;;;2.89;70.53;95791.86;106616;1276;22526;-74
2023/02/27 12:46:16;;;;;;;6.00;4.90;;;;;;;2.85;70.45;95803.80;106581;1275;22561;-74
2023/02/27 12:49:02;;;;;;;6.80;5.40;;;;;;;2.74;70.43;95809.19;106692;1275;22527;-74
2023/02/27 12:52:06;;;;;;;7.80;6.50;;;;;;;2.79;70.75;95814.48;106602;1276;22573;-74
2023/02/27 12:54:46;;;;;;;9.10;6.70;;;;;;;2.78;70.49;95816.56;106155;1276;22573;-74
2023/02/27 12:57:27;;;;;;;10.80;6.60;;;;;;;2.74;70.38;95824.65;106658;1275;24356;-74
2023/02/27 13:00:07;;;;;;;12.80;8.40;;;;;;;2.70;71.09;95832.41;106622;1276;23913;-74
2023/02/27 13:02:44;;;;;;;11.90;7.80;;;;;;;2.76;71.03;95829.20;106653;1275;22527;-74
2023/02/27 13:05:41;;;;;;;9.90;7.20;;;;;;;2.72;70.38;95830.17;106911;1276;22549;-74
2023/02/27 13:08:27;;;;;;;14.70;9.40;;;;;;;2.60;70.59;95841.46;106670;1260;22750;-73
2023/02/27 13:11:04;;;;;;;6.90;5.20;;;;;;;2.63;70.84;95842.71;106627;1276;22583;-74
2023/02/27 13:25:17;;;;;;;11.40;7.80;;;;;;;3.84;67.78;95842.39;104485;1304;557520;-74
2023/02/27 13:27:50;;;;;;;10.70;7.90;;;;;;;3.81;66.59;95855.98;105861;1286;205639;-73
2023/02/27 13:30:27;;;;;;;12.40;7.60;;;;;;;3.84;66.79;95859.50;106158;1286;22935;-74
2023/02/27 13:33:12;;;;;;;9.10;7.10;;;;;;;3.91;66.97;95862.38;106303;1286;25525;-74
2023/02/27 13:35:51;;;;;;;8.20;5.80;;;;;;;4.08;66.92;95858.21;106268;1286;22533;-74
2023/02/27 13:38:49;;;;;;;9.10;6.80;;;;;;;4.16;66.56;95861.77;106960;1275;25516;-74
2023/02/27 13:41:20;;;;;;;8.20;6.70;;;;;;;4.22;66.48;95864.80;106978;1275;25406;-73
2023/02/27 13:44:18;;;;;;;6.50;4.60;;;;;;;4.24;66.10;95861.85;107002;1275;23024;-73
2023/02/27 13:46:47;;;;;;;9.80;6.60;;;;;;;4.15;65.54;95867.16;106974;1275;22748;-73